Time;durP1;ratioP1;P1;durP2;ratioP2;P2;SDS_P1;SDS_P2;PMS_P1;PMS_P2;Temp;Humidity;BMP_temperature;BMP_pressure;BME280_temperature;BME280_humidity;BME280_pressure;Samples;Min_cycle;Max_cycle;Signal;HPM_P1;HPM_P2
2023/06/28 00:01:58;;;;;;;3.80;1.70;;;17.60;57.90;;;;;;6056472;23;20022;-77
2023/06/28 00:04:23;;;;;;;2.72;1.25;;;17.60;58.50;;;;;;6031653;23;20019;-76
2023/06/28 00:06:49;;;;;;;9.35;2.00;;;17.60;57.90;;;;;;6030885;23;20019;-78
2023/06/28 00:09:14;;;;;;;4.32;1.80;;;17.60;57.90;;;;;;6056013;23;20025;-78
2023/06/28 00:11:40;;;;;;;6.93;1.95;;;17.60;58.10;;;;;;6031676;23;20181;-78
2023/06/28 00:14:05;;;;;;;3.17;1.52;;;17.50;60.70;;;;;;6032615;23;20015;-78
2023/06/28 00:16:31;;;;;;;5.10;1.60;;;17.40;58.40;;;;;;6031671;23;20015;-78
2023/06/28 00:19:00;;;;;;;5.57;1.90;;;17.40;58.70;;;;;;6055372;23;20424;-77
2023/06/28 00:21:26;;;;;;;10.27;2.40;;;17.30;58.20;;;;;;6054450;23;20033;-78
2023/06/28 00:23:51;;;;;;;3.85;1.20;;;17.30;58.60;;;;;;6056039;23;20018;-77
2023/06/28 00:26:17;;;;;;;7.05;1.60;;;17.40;58.60;;;;;;6031587;23;20015;-77
2023/06/28 00:28:43;;;;;;;3.13;1.48;;;17.30;58.80;;;;;;6056164;23;20007;-78
2023/06/28 00:31:08;;;;;;;6.68;2.45;;;17.20;63.70;;;;;;6057040;23;20024;-78
2023/06/28 00:33:34;;;;;;;3.47;1.42;;;17.30;59.40;;;;;;6054532;23;20019;-77
2023/06/28 00:35:59;;;;;;;3.78;1.50;;;17.20;59.10;;;;;;6054144;23;20094;-78
2023/06/28 00:38:25;;;;;;;2.67;1.48;;;17.20;58.00;;;;;;6054140;23;20093;-78
2023/06/28 00:40:50;;;;;;;3.33;1.58;;;17.10;58.30;;;;;;6055234;23;20066;-77
2023/06/28 00:43:16;;;;;;;4.10;1.45;;;17.10;58.60;;;;;;6055363;23;20027;-78
2023/06/28 00:45:42;;;;;;;4.05;1.17;;;17.00;58.60;;;;;;6031950;23;20011;-77
2023/06/28 00:48:07;;;;;;;5.35;2.05;;;17.10;58.40;;;;;;6056924;23;20134;-78
2023/06/28 00:50:33;;;;;;;3.92;1.60;;;17.10;59.50;;;;;;6055475;23;20142;-77
2023/06/28 00:52:59;;;;;;;3.45;1.65;;;17.00;59.70;;;;;;6031758;23;20050;-77
2023/06/28 00:55:24;;;;;;;7.75;1.60;;;16.90;59.80;;;;;;6056006;23;20011;-77
2023/06/28 00:57:50;;;;;;;5.40;1.58;;;16.90;59.90;;;;;;6030436;23;20018;-77
2023/06/28 01:00:16;;;;;;;4.32;1.38;;;16.80;61.10;;;;;;6055160;23;20018;-78
2023/06/28 01:02:44;;;;;;;3.28;1.23;;;16.80;59.20;;;;;;6056065;23;20011;-78
2023/06/28 01:05:11;;;;;;;2.83;1.33;;;16.90;60.30;;;;;;6033007;23;20026;-77
2023/06/28 01:07:36;;;;;;;4.90;1.50;;;17.00;60.90;;;;;;6032508;23;20015;-78
2023/06/28 01:10:02;;;;;;;1.98;1.10;;;17.00;60.30;;;;;;6031786;23;20142;-77
2023/06/28 01:12:27;;;;;;;3.83;1.25;;;16.90;60.20;;;;;;6055589;23;20026;-77
2023/06/28 01:14:53;;;;;;;3.30;1.55;;;16.90;62.20;;;;;;6055821;23;20026;-77
2023/06/28 01:17:19;;;;;;;4.13;1.58;;;16.90;62.10;;;;;;6031386;23;20021;-78
2023/06/28 01:19:45;;;;;;;2.40;1.48;;;16.80;61.30;;;;;;6055928;23;20019;-78
2023/06/28 01:22:12;;;;;;;3.28;1.45;;;16.70;61.30;;;;;;6057497;23;20086;-77
2023/06/28 01:24:38;;;;;;;5.72;1.48;;;16.60;60.90;;;;;;6057641;23;20015;-77
2023/06/28 01:27:04;;;;;;;3.42;1.40;;;16.70;61.50;;;;;;6043104;23;20015;-78
2023/06/28 01:29:30;;;;;;;4.95;2.00;;;16.60;62.50;;;;;;6057901;23;20025;-76
2023/06/28 01:31:56;;;;;;;7.45;2.20;;;16.60;62.60;;;;;;6057770;23;20014;-78
2023/06/28 01:34:26;;;;;;;4.13;1.40;;;16.50;61.50;;;;;;6056918;23;20470;-78
2023/06/28 01:36:52;;;;;;;5.93;1.98;;;16.40;62.30;;;;;;6033289;23;20075;-78
2023/06/28 01:39:18;;;;;;;2.97;1.63;;;16.40;62.30;;;;;;6054331;23;20523;-78
2023/06/28 01:41:44;;;;;;;3.72;1.83;;;16.40;62.30;;;;;;6033720;23;20038;-78
2023/06/28 01:44:09;;;;;;;3.78;1.50;;;16.30;62.00;;;;;;6035348;23;20454;-78
2023/06/28 01:46:35;;;;;;;5.03;1.65;;;16.30;62.40;;;;;;6056355;23;20030;-76
2023/06/28 01:49:01;;;;;;;4.32;1.95;;;16.30;63.10;;;;;;6057172;23;20726;-76
2023/06/28 01:51:27;;;;;;;2.67;1.48;;;16.20;65.60;;;;;;6058472;23;20029;-77
2023/06/28 01:53:52;;;;;;;5.25;1.50;;;16.00;62.20;;;;;;6057455;23;20449;-78
2023/06/28 01:56:18;;;;;;;2.35;1.05;;;16.00;63.20;;;;;;6056662;23;20014;-78
2023/06/28 01:58:43;;;;;;;3.55;1.45;;;16.10;63.30;;;;;;6056347;23;20011;-79
2023/06/28 02:01:09;;;;;;;3.75;1.30;;;16.20;64.70;;;;;;6057557;23;20031;-78
2023/06/28 02:03:34;;;;;;;5.03;1.83;;;16.20;65.50;;;;;;6033080;23;20094;-78
2023/06/28 02:06:00;;;;;;;3.85;2.17;;;16.40;66.90;;;;;;6033389;23;20081;-78
2023/06/28 02:08:26;;;;;;;1.88;1.65;;;16.20;65.40;;;;;;6033035;23;20102;-78
2023/06/28 02:10:51;;;;;;;3.67;1.23;;;16.20;66.30;;;;;;6056824;23;20022;-78
2023/06/28 02:13:17;;;;;;;3.35;1.70;;;16.10;64.80;;;;;;6056993;23;20046;-78
2023/06/28 02:15:42;;;;;;;4.13;1.80;;;16.00;65.10;;;;;;6032827;23;20338;-78
2023/06/28 02:18:08;;;;;;;7.32;2.33;;;16.00;66.20;;;;;;6034571;23;20021;-78
2023/06/28 02:20:33;;;;;;;3.95;1.65;;;15.90;66.40;;;;;;6056773;23;20042;-78
2023/06/28 02:22:59;;;;;;;4.95;1.58;;;15.70;64.50;;;;;;6057510;23;20011;-78
2023/06/28 02:25:24;;;;;;;5.85;2.05;;;15.60;65.60;;;;;;6056796;23;20011;-78
2023/06/28 02:27:50;;;;;;;2.70;2.05;;;15.70;65.70;;;;;;6056815;23;20011;-78
2023/06/28 02:30:15;;;;;;;4.68;1.63;;;15.60;65.30;;;;;;6056641;23;20019;-78
2023/06/28 02:32:41;;;;;;;4.35;1.63;;;15.70;66.80;;;;;;6033063;23;20691;-78
2023/06/28 02:35:07;;;;;;;3.38;1.38;;;15.80;66.20;;;;;;6057148;23;20082;-78
2023/06/28 02:37:33;;;;;;;4.85;1.73;;;15.80;66.50;;;;;;6057069;23;20006;-78
2023/06/28 02:39:58;;;;;;;2.72;1.27;;;15.90;67.50;;;;;;6056775;23;20011;-78
2023/06/28 02:42:24;;;;;;;3.05;1.98;;;15.70;67.40;;;;;;6056441;23;20018;-78
2023/06/28 02:44:49;;;;;;;3.63;1.40;;;15.70;68.10;;;;;;6032116;23;20008;-78
2023/06/28 02:47:15;;;;;;;2.60;1.40;;;15.60;67.40;;;;;;6055930;23;20023;-78
2023/06/28 02:49:41;;;;;;;4.65;1.92;;;15.60;68.10;;;;;;6057360;23;20377;-78
2023/06/28 02:52:06;;;;;;;4.93;1.58;;;15.60;68.30;;;;;;6032211;23;20742;-78
2023/06/28 02:54:32;;;;;;;4.60;1.98;;;15.50;68.80;;;;;;6056491;23;20022;-78
2023/06/28 02:56:57;;;;;;;3.53;1.52;;;15.50;71.60;;;;;;6056035;23;20022;-79
2023/06/28 02:59:23;;;;;;;2.30;1.17;;;15.50;69.00;;;;;;6054954;23;20015;-78
2023/06/28 03:01:48;;;;;;;6.22;2.35;;;15.50;69.30;;;;;;6032053;23;20003;-77
2023/06/28 03:04:14;;;;;;;6.43;2.17;;;15.50;70.20;;;;;;6032742;23;20098;-76
2023/06/28 03:06:40;;;;;;;5.47;1.73;;;15.40;68.00;;;;;;6033701;23;20086;-77
2023/06/28 03:09:05;;;;;;;5.13;1.83;;;15.50;70.40;;;;;;6056238;23;20357;-76
2023/06/28 03:11:31;;;;;;;3.72;1.85;;;15.70;70.50;;;;;;6056643;23;21303;-77
2023/06/28 03:13:57;;;;;;;4.40;2.00;;;15.60;70.50;;;;;;6032439;23;20149;-76
2023/06/28 03:16:22;;;;;;;3.67;1.98;;;15.50;69.40;;;;;;6032073;23;20098;-76
2023/06/28 03:18:48;;;;;;;1.30;1.20;;;15.50;69.60;;;;;;6057221;23;20416;-75
2023/06/28 03:21:13;;;;;;;4.15;1.63;;;15.40;70.80;;;;;;6056784;23;20505;-76
2023/06/28 03:23:39;;;;;;;2.67;1.58;;;15.40;70.20;;;;;;6057543;23;20086;-75
2023/06/28 03:26:04;;;;;;;2.53;1.77;;;15.30;69.70;;;;;;6056435;23;20464;-76
2023/06/28 03:28:30;;;;;;;3.95;2.15;;;15.20;68.80;;;;;;6056797;23;20018;-76
2023/06/28 03:30:56;;;;;;;5.03;1.63;;;15.20;68.20;;;;;;6055889;23;20511;-76
2023/06/28 03:33:22;;;;;;;3.95;2.28;;;15.30;70.20;;;;;;6056124;23;20023;-76
2023/06/28 03:35:47;;;;;;;2.38;1.60;;;15.20;70.50;;;;;;6032067;23;20716;-75
2023/06/28 03:38:13;;;;;;;5.82;2.00;;;15.30;70.10;;;;;;6055953;23;20468;-76
2023/06/28 03:40:38;;;;;;;3.45;1.83;;;15.30;70.90;;;;;;6057054;23;20083;-77
2023/06/28 03:43:04;;;;;;;4.97;1.70;;;15.30;70.70;;;;;;6031739;23;20021;-75
2023/06/28 03:45:29;;;;;;;4.25;2.10;;;15.50;70.60;;;;;;6031959;23;20094;-75
2023/06/28 03:47:55;;;;;;;4.45;1.35;;;15.40;70.70;;;;;;6055551;23;20581;-75
2023/06/28 03:50:21;;;;;;;2.58;1.33;;;15.40;71.20;;;;;;6055614;23;20023;-76
2023/06/28 03:52:46;;;;;;;3.55;1.38;;;15.50;71.00;;;;;;6055717;23;20014;-76
2023/06/28 03:55:12;;;;;;;4.18;1.90;;;15.60;71.10;;;;;;6056985;23;20101;-76
2023/06/28 03:57:38;;;;;;;2.88;1.30;;;15.60;72.50;;;;;;6055368;23;20056;-75
2023/06/28 04:00:07;;;;;;;4.15;1.60;;;15.60;71.20;;;;;;6055431;23;20006;-75
2023/06/28 04:02:33;;;;;;;4.05;2.35;;;15.60;72.60;;;;;;6032438;23;20015;-75
2023/06/28 04:04:58;;;;;;;4.00;1.60;;;15.50;72.30;;;;;;6055456;23;20090;-76
2023/06/28 04:07:24;;;;;;;6.22;2.25;;;15.50;71.80;;;;;;6055370;23;20034;-76
2023/06/28 04:09:50;;;;;;;3.63;1.77;;;15.60;72.70;;;;;;6055502;23;20015;-76
2023/06/28 04:12:16;;;;;;;3.53;1.60;;;15.70;72.20;;;;;;6055785;23;20026;-76
2023/06/28 04:14:42;;;;;;;4.75;1.98;;;15.50;72.60;;;;;;6055963;23;20079;-76
2023/06/28 04:17:07;;;;;;;5.85;1.75;;;15.50;71.90;;;;;;6031303;23;20093;-76
2023/06/28 04:19:33;;;;;;;3.17;1.42;;;15.50;71.90;;;;;;6031341;23;20018;-76
2023/06/28 04:21:59;;;;;;;4.10;1.83;;;15.60;71.20;;;;;;6031985;23;20025;-76
2023/06/28 04:24:25;;;;;;;3.38;1.80;;;15.60;71.00;;;;;;6031980;23;20019;-76
2023/06/28 04:26:50;;;;;;;6.10;2.30;;;15.50;71.40;;;;;;6030799;23;20061;-77
2023/06/28 04:29:16;;;;;;;3.22;1.75;;;15.70;71.50;;;;;;6032192;23;20034;-76
2023/06/28 04:31:41;;;;;;;4.55;1.73;;;15.80;71.50;;;;;;6056351;23;20011;-77
2023/06/28 04:34:07;;;;;;;4.40;1.90;;;15.90;71.00;;;;;;6055893;23;20011;-76
2023/06/28 04:36:32;;;;;;;3.35;1.40;;;15.90;70.60;;;;;;6031909;23;20038;-76
2023/06/28 04:38:58;;;;;;;5.50;1.75;;;15.90;70.10;;;;;;6055912;23;20505;-76
2023/06/28 04:41:26;;;;;;;5.18;2.17;;;15.90;71.50;;;;;;6032140;23;20039;-76
2023/06/28 04:43:56;;;;;;;2.35;1.45;;;15.90;72.40;;;;;;6055029;23;20453;-76
2023/06/28 04:46:22;;;;;;;5.43;1.55;;;16.10;72.10;;;;;;6055520;23;20079;-76
2023/06/28 04:48:48;;;;;;;3.88;2.30;;;16.10;70.60;;;;;;6055289;23;20022;-77
2023/06/28 04:51:14;;;;;;;4.38;2.15;;;16.10;70.50;;;;;;6033200;23;20715;-76
2023/06/28 04:53:39;;;;;;;2.78;1.80;;;16.20;70.10;;;;;;6057125;23;20570;-75
2023/06/28 04:56:05;;;;;;;6.93;2.03;;;16.30;70.20;;;;;;6033422;23;20014;-76
2023/06/28 04:58:31;;;;;;;4.90;1.80;;;16.40;69.10;;;;;;6056564;23;20023;-76
2023/06/28 05:00:56;;;;;;;4.78;1.20;;;16.60;71.00;;;;;;6033323;23;20011;-76
2023/06/28 05:03:28;;;;;;;2.75;1.58;;;16.70;68.80;;;;;;6033420;23;20015;-76
2023/06/28 05:05:54;;;;;;;4.47;2.08;;;16.80;68.50;;;;;;6057032;23;20011;-76
2023/06/28 05:08:20;;;;;;;7.80;2.58;;;16.90;68.00;;;;;;6033052;23;20023;-76
2023/06/28 05:10:46;;;;;;;6.97;2.40;;;17.10;68.30;;;;;;6057420;23;20066;-77
2023/06/28 05:13:11;;;;;;;5.32;2.03;;;17.20;67.70;;;;;;6034614;23;20467;-76
2023/06/28 05:15:37;;;;;;;6.85;1.80;;;17.40;67.20;;;;;;6057070;23;20007;-76
2023/06/28 05:18:03;;;;;;;6.95;1.83;;;17.70;67.10;;;;;;6033614;23;20522;-76
2023/06/28 05:20:29;;;;;;;4.07;1.50;;;17.70;67.10;;;;;;6033526;23;20102;-76
2023/06/28 05:23:11;;;;;;;6.60;2.33;;;17.80;66.80;;;;;;6056306;23;20030;-77
2023/06/28 05:25:38;;;;;;;3.13;1.88;;;17.90;66.30;;;;;;6056493;23;20473;-76
2023/06/28 05:28:04;;;;;;;3.92;1.50;;;18.00;66.20;;;;;;6056956;23;20070;-77
2023/06/28 05:30:30;;;;;;;3.00;1.52;;;18.20;66.30;;;;;;6057040;23;20147;-77
2023/06/28 05:32:55;;;;;;;4.50;1.95;;;18.30;66.30;;;;;;6056878;23;20034;-77
2023/06/28 05:35:21;;;;;;;3.47;1.70;;;18.40;67.10;;;;;;6033057;23;20022;-77
2023/06/28 05:37:46;;;;;;;3.50;2.03;;;18.40;66.20;;;;;;6033300;23;20094;-77
2023/06/28 05:40:12;;;;;;;5.50;2.30;;;18.50;66.30;;;;;;6034420;23;20018;-76
2023/06/28 05:42:38;;;;;;;5.68;1.83;;;18.60;66.10;;;;;;6057367;23;20086;-77
2023/06/28 05:45:04;;;;;;;4.88;1.85;;;18.60;66.30;;;;;;6057614;23;20014;-77
2023/06/28 05:47:30;;;;;;;6.18;1.70;;;18.70;66.10;;;;;;6009496;23;20441;-77
2023/06/28 05:49:55;;;;;;;3.47;1.83;;;18.80;66.10;;;;;;6057181;23;20018;-77
2023/06/28 05:52:21;;;;;;;4.10;1.55;;;18.70;66.40;;;;;;6057422;23;20529;-77
2023/06/28 05:54:47;;;;;;;4.60;1.80;;;18.70;66.20;;;;;;6056850;23;20015;-77
2023/06/28 05:57:12;;;;;;;5.25;1.80;;;18.70;66.10;;;;;;6033876;23;20630;-77
2023/06/28 05:59:38;;;;;;;3.67;1.75;;;18.80;65.80;;;;;;6056739;23;20022;-76
2023/06/28 06:02:04;;;;;;;5.07;1.48;;;18.70;66.30;;;;;;6057429;23;20022;-77
2023/06/28 06:04:29;;;;;;;4.78;2.00;;;18.70;66.00;;;;;;6057140;23;20011;-77
2023/06/28 06:06:55;;;;;;;4.50;1.83;;;18.80;66.50;;;;;;6056373;23;20031;-77
2023/06/28 06:09:21;;;;;;;3.78;1.80;;;18.80;66.30;;;;;;6056831;23;20498;-77
2023/06/28 06:11:46;;;;;;;3.50;1.70;;;18.80;66.20;;;;;;6033133;23;20054;-77
2023/06/28 06:14:12;;;;;;;4.20;1.52;;;18.80;67.00;;;;;;6033293;23;20030;-77
2023/06/28 06:16:37;;;;;;;4.20;1.65;;;18.80;66.20;;;;;;6031628;23;20705;-77
2023/06/28 06:19:03;;;;;;;5.28;1.70;;;18.70;65.80;;;;;;6057520;23;20042;-77
2023/06/28 06:21:28;;;;;;;2.35;1.20;;;18.80;66.40;;;;;;6057219;23;20020;-76
2023/06/28 06:23:54;;;;;;;4.75;1.73;;;18.80;65.90;;;;;;6056803;23;20035;-77
2023/06/28 06:26:20;;;;;;;5.38;1.92;;;18.90;65.70;;;;;;6057230;23;20093;-77
2023/06/28 06:28:45;;;;;;;2.95;1.80;;;19.00;65.30;;;;;;6057511;23;20030;-77
2023/06/28 06:31:13;;;;;;;1.98;1.08;;;18.90;65.70;;;;;;6009457;23;20023;-77
2023/06/28 06:33:39;;;;;;;4.50;1.73;;;19.10;66.20;;;;;;6033353;23;20357;-77
2023/06/28 06:36:05;;;;;;;2.92;1.20;;;19.10;65.40;;;;;;6056304;23;20086;-76
2023/06/28 06:38:31;;;;;;;4.88;1.35;;;19.20;65.60;;;;;;6056780;23;20478;-76
2023/06/28 06:40:56;;;;;;;4.63;1.33;;;19.20;65.90;;;;;;6057065;23;20434;-76
2023/06/28 06:43:22;;;;;;;8.30;1.45;;;19.20;66.20;;;;;;6032804;23;20450;-77
2023/06/28 06:45:47;;;;;;;3.03;1.33;;;19.30;66.60;;;;;;6032315;23;20345;-76
2023/06/28 06:48:13;;;;;;;2.97;1.05;;;19.30;66.30;;;;;;6057207;23;20011;-77
2023/06/28 06:50:38;;;;;;;4.00;1.40;;;19.20;65.70;;;;;;6056713;23;20011;-76
2023/06/28 06:53:04;;;;;;;3.53;1.60;;;19.20;66.20;;;;;;6056486;23;20108;-76
2023/06/28 06:55:29;;;;;;;3.45;1.73;;;19.20;65.80;;;;;;6032473;23;20062;-77
2023/06/28 06:57:55;;;;;;;2.60;1.38;;;19.30;65.90;;;;;;6029805;23;20011;-77
2023/06/28 07:00:21;;;;;;;2.08;1.33;;;19.30;65.40;;;;;;6056115;23;20046;-76
2023/06/28 07:02:46;;;;;;;3.17;1.30;;;19.40;65.50;;;;;;6032786;23;20014;-77
2023/06/28 07:05:12;;;;;;;3.42;1.23;;;19.50;66.60;;;;;;6057860;23;20011;-76
2023/06/28 07:07:37;;;;;;;4.13;1.42;;;19.50;65.80;;;;;;6056091;23;20078;-76
2023/06/28 07:10:03;;;;;;;4.03;1.20;;;19.60;65.90;;;;;;6056520;23;20523;-77
2023/06/28 07:12:29;;;;;;;5.70;1.50;;;19.50;66.80;;;;;;6055353;23;20400;-76
2023/06/28 07:14:54;;;;;;;3.60;2.20;;;19.40;68.00;;;;;;6056322;23;20106;-76
2023/06/28 07:17:20;;;;;;;5.63;2.03;;;19.30;68.00;;;;;;6055541;23;20025;-77
2023/06/28 07:19:46;;;;;;;6.90;1.25;;;19.30;67.90;;;;;;6057555;23;20500;-76
2023/06/28 07:22:12;;;;;;;5.75;1.80;;;19.20;67.10;;;;;;6055996;23;20019;-76
2023/06/28 07:24:38;;;;;;;2.50;1.48;;;19.20;68.50;;;;;;6032799;23;20098;-77
2023/06/28 07:27:04;;;;;;;4.43;1.55;;;19.10;68.30;;;;;;6055740;23;20434;-78
2023/06/28 07:29:29;;;;;;;2.47;1.40;;;19.00;68.20;;;;;;6056409;23;20089;-76
2023/06/28 07:31:55;;;;;;;3.75;2.03;;;19.00;68.60;;;;;;6031656;23;20086;-77
2023/06/28 07:34:21;;;;;;;3.88;1.20;;;19.00;69.50;;;;;;6032450;23;20095;-76
2023/06/28 07:36:47;;;;;;;3.08;1.42;;;18.90;68.50;;;;;;6056935;23;20102;-76
2023/06/28 07:39:12;;;;;;;3.05;1.75;;;18.90;69.60;;;;;;6056486;23;20019;-76
2023/06/28 07:41:38;;;;;;;1.88;1.30;;;18.80;68.90;;;;;;6031868;23;20015;-77
2023/06/28 07:44:04;;;;;;;2.28;1.13;;;18.80;69.00;;;;;;6056167;23;20361;-76
2023/06/28 07:46:29;;;;;;;6.47;1.48;;;18.80;70.00;;;;;;6008351;23;20022;-78
2023/06/28 07:48:56;;;;;;;4.13;1.42;;;18.80;71.10;;;;;;6055348;23;20338;-78
2023/06/28 07:51:21;;;;;;;2.00;1.40;;;18.80;70.80;;;;;;6055455;23;20046;-78
2023/06/28 07:53:47;;;;;;;3.17;1.73;;;19.00;72.10;;;;;;6056897;23;20450;-78
2023/06/28 07:56:13;;;;;;;3.83;1.58;;;18.90;71.50;;;;;;6032530;23;20015;-78
2023/06/28 07:58:38;;;;;;;4.60;1.55;;;18.90;71.70;;;;;;6031570;23;20048;-78
2023/06/28 08:01:04;;;;;;;3.13;1.40;;;19.00;71.30;;;;;;6031744;23;20787;-78
2023/06/28 08:03:30;;;;;;;4.95;1.90;;;19.10;72.60;;;;;;6055846;23;20015;-78
2023/06/28 08:05:55;;;;;;;6.28;2.55;;;19.20;73.10;;;;;;6030838;23;20007;-77
2023/06/28 08:08:21;;;;;;;2.58;1.52;;;19.40;73.90;;;;;;6055720;23;20662;-77
2023/06/28 08:10:46;;;;;;;3.08;1.77;;;19.40;73.00;;;;;;6032505;23;20462;-77
2023/06/28 08:13:12;;;;;;;6.82;2.70;;;19.50;75.90;;;;;;6032238;23;20450;-78
2023/06/28 08:15:38;;;;;;;3.22;2.00;;;19.50;72.20;;;;;;6031490;23;20029;-78
2023/06/28 08:18:05;;;;;;;4.57;2.30;;;19.60;74.20;;;;;;6055108;23;20525;-78
2023/06/28 08:20:31;;;;;;;4.05;1.55;;;19.50;72.30;;;;;;6054823;23;20029;-78
2023/06/28 08:22:57;;;;;;;4.53;2.22;;;19.50;72.60;;;;;;6055516;23;20019;-78
2023/06/28 08:25:22;;;;;;;5.20;1.80;;;19.60;73.50;;;;;;6032307;23;20015;-77
2023/06/28 08:27:48;;;;;;;7.28;2.13;;;19.80;72.70;;;;;;6057152;23;20442;-78
2023/06/28 08:30:13;;;;;;;5.50;2.13;;;19.90;74.00;;;;;;6032293;23;20440;-78
2023/06/28 08:32:40;;;;;;;5.40;1.63;;;20.10;73.70;;;;;;6055751;23;20015;-78
2023/06/28 08:35:07;;;;;;;4.35;2.50;;;20.10;74.30;;;;;;6055229;23;20039;-78
2023/06/28 08:37:34;;;;;;;2.53;1.85;;;20.20;74.10;;;;;;6055216;23;20045;-77
2023/06/28 08:40:00;;;;;;;4.72;2.42;;;20.70;75.30;;;;;;6054926;23;20254;-77
2023/06/28 08:42:25;;;;;;;3.15;1.60;;;20.80;72.80;;;;;;6055702;23;20019;-77
2023/06/28 08:44:51;;;;;;;7.20;2.03;;;21.00;72.60;;;;;;6055594;23;20042;-77
2023/06/28 08:47:16;;;;;;;3.70;1.83;;;21.20;71.60;;;;;;6056653;23;20022;-77
2023/06/28 08:49:42;;;;;;;4.20;1.85;;;21.60;73.60;;;;;;6055386;23;20011;-77
2023/06/28 08:52:08;;;;;;;3.60;1.52;;;21.90;72.90;;;;;;6054842;23;20509;-78
2023/06/28 08:54:33;;;;;;;3.95;1.80;;;21.80;70.80;;;;;;6054689;23;20022;-77
2023/06/28 08:56:59;;;;;;;5.38;2.22;;;22.30;72.20;;;;;;6030115;23;20015;-77
2023/06/28 08:59:25;;;;;;;4.70;1.55;;;22.80;70.80;;;;;;6054449;23;20029;-77
2023/06/28 09:01:54;;;;;;;2.75;1.10;;;22.50;67.50;;;;;;6031867;23;20078;-77
2023/06/28 09:04:22;;;;;;;4.93;1.42;;;22.80;69.60;;;;;;6055784;23;20023;-77
2023/06/28 09:06:48;;;;;;;2.83;1.20;;;22.70;66.30;;;;;;6056643;23;20035;-77
2023/06/28 09:09:13;;;;;;;4.10;1.77;;;22.60;68.10;;;;;;6032505;23;20414;-79
2023/06/28 09:11:39;;;;;;;2.65;1.40;;;22.80;66.30;;;;;;6055968;23;20713;-77
2023/06/28 09:14:04;;;;;;;2.47;0.95;;;23.20;69.90;;;;;;6055899;23;20043;-77
2023/06/28 09:16:31;;;;;;;2.22;1.38;;;23.70;69.50;;;;;;6031390;23;20019;-79
2023/06/28 09:18:56;;;;;;;3.33;1.50;;;23.70;66.70;;;;;;6030468;23;20019;-79
2023/06/28 09:21:25;;;;;;;4.43;1.25;;;23.70;64.80;;;;;;6055237;23;20034;-77
2023/06/28 09:23:51;;;;;;;5.70;1.63;;;23.40;64.00;;;;;;6056143;23;20453;-77
2023/06/28 09:26:17;;;;;;;2.00;1.25;;;23.50;67.30;;;;;;6056707;23;20021;-79
2023/06/28 09:28:42;;;;;;;3.30;1.45;;;23.30;64.30;;;;;;6031515;23;20007;-79
2023/06/28 09:31:08;;;;;;;3.75;1.20;;;23.40;66.00;;;;;;6031362;23;20569;-77
2023/06/28 09:33:34;;;;;;;3.92;1.42;;;23.60;66.70;;;;;;6055170;23;20621;-77
2023/06/28 09:36:00;;;;;;;4.03;2.15;;;23.70;66.10;;;;;;6055250;23;20416;-77
2023/06/28 09:38:26;;;;;;;3.70;1.35;;;23.70;65.40;;;;;;6054698;23;20006;-77
2023/06/28 09:40:56;;;;;;;4.60;1.63;;;23.80;65.70;;;;;;6032352;23;20035;-77
2023/06/28 09:43:22;;;;;;;5.68;1.52;;;23.70;65.30;;;;;;6056957;23;20007;-79
2023/06/28 09:45:48;;;;;;;4.70;1.88;;;23.80;65.10;;;;;;6057724;23;20087;-79
2023/06/28 09:48:14;;;;;;;3.55;1.33;;;23.70;65.90;;;;;;6056673;23;20019;-79
2023/06/28 09:50:43;;;;;;;6.55;1.65;;;23.70;64.20;;;;;;6055695;23;20665;-79
2023/06/28 09:53:19;;;;;;;4.10;1.58;;;23.90;64.30;;;;;;6011886;23;20014;-79
2023/06/28 09:55:45;;;;;;;6.32;1.73;;;23.40;62.60;;;;;;6035186;23;20393;-79
2023/06/28 09:58:18;;;;;;;2.10;1.45;;;23.30;65.10;;;;;;6058829;23;20022;-77
2023/06/28 10:00:45;;;;;;;7.35;2.05;;;23.60;63.60;;;;;;6058971;23;20393;-77
2023/06/28 10:03:13;;;;;;;4.47;1.50;;;23.90;64.20;;;;;;6034695;23;20018;-79
2023/06/28 10:05:39;;;;;;;3.63;1.90;;;24.00;63.40;;;;;;6010356;23;20011;-77
2023/06/28 10:08:09;;;;;;;3.33;1.40;;;24.20;63.10;;;;;;6058092;23;20002;-77
2023/06/28 10:10:35;;;;;;;6.28;1.73;;;24.20;62.80;;;;;;6059029;23;20014;-77
2023/06/28 10:13:06;;;;;;;6.18;1.88;;;24.30;62.80;;;;;;6058512;23;20442;-78
2023/06/28 10:15:36;;;;;;;6.28;1.80;;;24.50;62.30;;;;;;6035340;23;20062;-77
2023/06/28 10:18:02;;;;;;;4.90;1.55;;;24.40;61.00;;;;;;6059285;23;20011;-77
2023/06/28 10:20:28;;;;;;;2.67;1.20;;;24.30;63.10;;;;;;6058968;23;20441;-77
2023/06/28 10:22:54;;;;;;;5.10;2.30;;;24.60;60.60;;;;;;6058813;23;20007;-79
2023/06/28 10:25:21;;;;;;;3.72;1.50;;;24.30;62.80;;;;;;6035522;23;20480;-79
2023/06/28 10:27:47;;;;;;;4.13;1.85;;;24.60;61.60;;;;;;6035157;23;20018;-79
2023/06/28 10:30:13;;;;;;;8.20;2.33;;;24.50;60.80;;;;;;6058488;23;20015;-79
2023/06/28 10:32:38;;;;;;;6.03;2.10;;;24.10;62.00;;;;;;6058112;23;20091;-79
2023/06/28 10:35:04;;;;;;;5.93;2.25;;;23.60;60.30;;;;;;6058736;23;20019;-79
2023/06/28 10:37:30;;;;;;;5.85;1.60;;;23.70;62.70;;;;;;6058281;23;20011;-79
2023/06/28 10:39:56;;;;;;;9.15;2.10;;;24.00;62.10;;;;;;6058773;23;20022;-79
2023/06/28 10:42:21;;;;;;;5.18;1.83;;;24.20;61.30;;;;;;6058980;23;20419;-79
2023/06/28 10:44:54;;;;;;;5.18;1.98;;;24.20;61.20;;;;;;6058072;23;20019;-79
2023/06/28 10:47:20;;;;;;;4.60;1.80;;;24.10;60.80;;;;;;6035323;23;20025;-79
2023/06/28 10:50:14;;;;;;;3.95;1.95;;;24.10;60.90;;;;;;6058967;23;20011;-79
2023/06/28 10:52:46;;;;;;;4.03;1.80;;;24.10;61.00;;;;;;6021125;23;20074;-79
2023/06/28 10:55:12;;;;;;;3.78;1.58;;;23.90;60.70;;;;;;6011550;23;20018;-79
2023/06/28 10:57:38;;;;;;;5.13;1.75;;;23.60;60.70;;;;;;6011135;23;20066;-79
2023/06/28 11:00:11;;;;;;;4.57;1.75;;;23.50;61.10;;;;;;6058768;23;20015;-79
2023/06/28 11:03:06;;;;;;;4.63;1.60;;;23.50;62.50;;;;;;6035679;23;20350;-79
2023/06/28 11:05:40;;;;;;;5.45;1.83;;;23.80;61.80;;;;;;6078520;23;20076;-79
2023/06/28 11:08:09;;;;;;;4.70;1.88;;;23.80;61.60;;;;;;6058597;23;20438;-79
2023/06/28 11:10:39;;;;;;;5.05;2.15;;;23.90;62.00;;;;;;6034661;23;20022;-79
2023/06/28 11:13:08;;;;;;;3.95;1.52;;;24.10;60.30;;;;;;6033149;23;20015;-79
2023/06/28 11:15:35;;;;;;;6.18;2.00;;;24.00;60.50;;;;;;6010737;23;20516;-79
2023/06/28 11:18:11;;;;;;;7.60;2.00;;;24.40;61.70;;;;;;6034271;23;20042;-79
2023/06/28 11:20:52;;;;;;;2.65;1.25;;;24.70;61.50;;;;;;6011632;23;20074;-79
2023/06/28 11:23:38;;;;;;;2.42;1.45;;;24.80;59.20;;;;;;6060370;23;20098;-79
2023/06/28 11:26:05;;;;;;;8.40;2.63;;;24.70;61.30;;;;;;6033991;23;20477;-79
2023/06/28 11:28:35;;;;;;;4.90;2.00;;;25.10;59.90;;;;;;6034798;23;20452;-79
2023/06/28 11:31:35;;;;;;;5.50;1.95;;;24.90;60.90;;;;;;6035199;23;20010;-79
2023/06/28 11:34:00;;;;;;;6.75;1.92;;;25.30;59.90;;;;;;6006232;23;20018;-79
2023/06/28 11:36:26;;;;;;;6.03;1.77;;;25.40;60.20;;;;;;6033874;23;20007;-79
2023/06/28 11:38:52;;;;;;;9.32;2.03;;;25.70;59.80;;;;;;5987589;23;20070;-79
2023/06/28 11:41:18;;;;;;;4.85;1.63;;;26.20;59.80;;;;;;6016348;23;20027;-79
2023/06/28 11:43:44;;;;;;;4.47;1.98;;;26.40;59.80;;;;;;6062376;23;20026;-79
2023/06/28 11:46:10;;;;;;;4.70;1.70;;;27.20;59.10;;;;;;6033244;23;20078;-79
2023/06/28 11:48:35;;;;;;;3.65;1.83;;;27.20;57.10;;;;;;6032962;23;20390;-79
2023/06/28 11:51:03;;;;;;;5.15;1.80;;;27.30;57.50;;;;;;6033004;23;20022;-79
2023/06/28 11:53:29;;;;;;;3.42;1.50;;;27.70;58.50;;;;;;6009509;23;20069;-79
2023/06/28 11:55:55;;;;;;;4.25;1.98;;;27.80;57.20;;;;;;6032464;23;20022;-79
2023/06/28 11:58:34;;;;;;;4.88;1.98;;;27.20;56.10;;;;;;6033176;23;20349;-79
2023/06/28 12:01:04;;;;;;;3.05;1.75;;;27.60;58.90;;;;;;6014226;23;20123;-79
2023/06/28 12:03:36;;;;;;;4.95;2.15;;;28.40;57.60;;;;;;6015235;23;20457;-79
2023/06/28 12:06:06;;;;;;;5.70;1.80;;;28.70;56.70;;;;;;6015176;23;20018;-79
2023/06/28 12:08:35;;;;;;;5.07;2.28;;;29.50;57.60;;;;;;6038769;23;20034;-79
2023/06/28 12:11:09;;;;;;;6.57;2.00;;;30.00;56.50;;;;;;6014522;23;20014;-79
2023/06/28 12:13:34;;;;;;;4.40;2.05;;;30.00;54.20;;;;;;6040003;23;20097;-79
2023/06/28 12:16:13;;;;;;;5.57;2.10;;;30.40;56.40;;;;;;6062016;23;20349;-80
2023/06/28 12:18:55;;;;;;;4.53;2.35;;;30.90;51.40;;;;;;6014861;23;20017;-80
2023/06/28 12:21:21;;;;;;;7.63;1.85;;;31.80;53.70;;;;;;6039310;23;20352;-80
2023/06/28 12:23:48;;;;;;;5.95;1.63;;;32.50;51.30;;;;;;6014977;23;20010;-80
2023/06/28 12:26:13;;;;;;;5.40;2.10;;;32.30;50.80;;;;;;6014468;23;20011;-79
2023/06/28 12:28:39;;;;;;;6.22;2.75;;;32.50;50.90;;;;;;6038489;23;20010;-79
2023/06/28 12:31:05;;;;;;;6.05;2.63;;;32.50;50.30;;;;;;6014673;23;20033;-79
2023/06/28 12:33:35;;;;;;;5.25;2.20;;;32.60;50.10;;;;;;6014549;23;20426;-80
2023/06/28 12:36:00;;;;;;;4.63;2.00;;;32.50;50.10;;;;;;6038254;23;20416;-80
2023/06/28 12:38:26;;;;;;;4.60;1.92;;;33.00;49.20;;;;;;5991068;23;20082;-80
2023/06/28 12:40:51;;;;;;;6.15;2.10;;;33.30;48.80;;;;;;6034094;23;20331;-79
2023/06/28 12:43:22;;;;;;;4.40;1.83;;;32.40;49.30;;;;;;6033988;23;20030;-80
2023/06/28 12:45:51;;;;;;;6.10;1.83;;;33.10;49.30;;;;;;6034446;23;20015;-80